createdAt,value
2018-04-22T00:01:04.324Z,51.80
2018-04-22T00:03:31.741Z,51.96
2018-04-22T00:06:00.002Z,52.18
2018-04-22T00:08:27.414Z,52.13
2018-04-22T00:10:54.872Z,52.16
2018-04-22T00:13:22.279Z,52.03
2018-04-22T00:15:49.788Z,52.05
2018-04-22T00:18:17.190Z,51.92
2018-04-22T00:20:44.686Z,51.87
2018-04-22T00:23:12.080Z,51.93
2018-04-22T00:25:39.529Z,52.03
2018-04-22T00:28:06.955Z,52.35
2018-04-22T00:30:34.391Z,52.32
2018-04-22T00:33:01.817Z,52.56
2018-04-22T00:35:29.247Z,53.06
2018-04-22T00:37:56.710Z,52.69
2018-04-22T00:40:24.505Z,52.80
2018-04-22T00:42:51.912Z,52.62
2018-04-22T00:45:19.377Z,52.98
2018-04-22T00:47:46.779Z,53.41
2018-04-22T00:50:14.172Z,52.56
2018-04-22T00:52:41.601Z,52.07
2018-04-22T00:55:09.100Z,51.91
2018-04-22T00:57:36.526Z,52.17
2018-04-22T01:00:04.018Z,52.14
2018-04-22T01:02:31.478Z,52.24
2018-04-22T01:04:58.911Z,52.59
2018-04-22T01:07:26.340Z,52.49
2018-04-22T01:09:53.942Z,52.01
2018-04-22T01:12:21.419Z,52.33
2018-04-22T01:14:48.873Z,53.17
2018-04-22T01:17:16.296Z,53.97
2018-04-22T01:19:43.715Z,53.57
2018-04-22T01:22:11.138Z,53.46
2018-04-22T01:24:38.571Z,53.25
2018-04-22T01:27:06.000Z,53.23
2018-04-22T01:29:33.609Z,53.90
2018-04-22T01:32:01.007Z,53.71
2018-04-22T01:34:28.460Z,53.83
2018-04-22T01:36:55.862Z,54.31
2018-04-22T01:39:23.998Z,54.56
2018-04-22T01:41:51.390Z,54.71
2018-04-22T01:44:18.835Z,54.70
2018-04-22T01:46:46.267Z,54.91
2018-04-22T01:49:13.757Z,55.43
2018-04-22T01:51:41.228Z,55.30
2018-04-22T01:54:08.677Z,55.11
2018-04-22T01:56:36.138Z,54.36
2018-04-22T01:59:03.730Z,55.07
2018-04-22T02:01:31.130Z,55.00
2018-04-22T02:03:58.639Z,55.49
2018-04-22T02:06:26.042Z,55.84
2018-04-22T02:08:53.520Z,56.18
2018-04-22T02:11:21.149Z,56.37
2018-04-22T02:13:48.617Z,56.40
2018-04-22T02:16:16.007Z,56.45
2018-04-22T02:18:43.451Z,56.71
2018-04-22T02:21:10.897Z,56.97
2018-04-22T02:23:38.519Z,57.20
2018-04-22T02:26:05.916Z,57.42
2018-04-22T02:28:33.335Z,57.29
2018-04-22T02:31:00.773Z,56.21
2018-04-22T02:33:28.231Z,56.78
2018-04-22T02:35:55.652Z,56.76
2018-04-22T02:38:23.091Z,56.53
2018-04-22T02:40:50.561Z,56.71
2018-04-22T02:43:18.017Z,57.39
2018-04-22T02:45:45.446Z,57.74
2018-04-22T02:48:12.864Z,57.92
2018-04-22T02:50:40.305Z,57.93
2018-04-22T02:53:07.764Z,57.92
2018-04-22T02:55:35.205Z,57.80
2018-04-22T02:58:02.635Z,58.14
2018-04-22T03:00:30.076Z,58.25
2018-04-22T03:02:57.513Z,57.94
2018-04-22T03:05:24.935Z,57.52
2018-04-22T03:07:52.408Z,57.51
2018-04-22T03:10:19.835Z,57.97
2018-04-22T03:12:47.226Z,57.77
2018-04-22T03:15:14.645Z,57.73
2018-04-22T03:17:42.106Z,57.95
2018-04-22T03:20:09.535Z,58.18
2018-04-22T03:22:36.997Z,58.92
2018-04-22T03:25:04.471Z,59.07
2018-04-22T03:27:31.877Z,59.16
2018-04-22T03:29:59.336Z,59.25
2018-04-22T03:32:26.813Z,59.17
2018-04-22T03:34:54.284Z,59.34
2018-04-22T03:37:21.753Z,59.42
2018-04-22T03:39:49.158Z,59.60
2018-04-22T03:42:17.555Z,59.05
2018-04-22T03:44:44.993Z,59.06
2018-04-22T03:47:12.435Z,59.19
2018-04-22T03:49:39.857Z,59.40
2018-04-22T03:52:07.298Z,59.58
2018-04-22T03:54:34.762Z,59.67
2018-04-22T03:57:02.236Z,59.47
2018-04-22T03:59:29.676Z,59.30
2018-04-22T04:01:57.069Z,59.30
2018-04-22T04:04:24.537Z,59.19
2018-04-22T04:06:51.967Z,58.84
2018-04-22T04:09:19.390Z,59.00
2018-04-22T04:11:46.865Z,59.19
2018-04-22T04:14:14.303Z,59.72
2018-04-22T04:16:41.744Z,59.56
2018-04-22T04:19:20.763Z,60.24
2018-04-22T04:21:59.882Z,60.41
2018-04-22T04:27:44.742Z,61.08
2018-04-22T04:30:12.208Z,60.94
2018-04-22T04:32:40.133Z,61.09
2018-04-22T04:35:07.552Z,61.04
2018-04-22T04:37:34.986Z,61.24
2018-04-22T04:40:02.431Z,61.28
2018-04-22T04:42:30.189Z,61.35
2018-04-22T04:44:57.581Z,61.53
2018-04-22T04:47:25.041Z,61.28
2018-04-22T04:49:52.438Z,61.08
2018-04-22T04:52:20.767Z,61.14
2018-04-22T04:54:48.242Z,60.99
2018-04-22T04:57:15.612Z,60.72
2018-04-22T04:59:43.067Z,60.65
2018-04-22T05:02:10.508Z,60.55
2018-04-22T05:04:37.918Z,60.68
2018-04-22T05:07:05.485Z,60.38
2018-04-22T05:09:32.894Z,60.18
2018-04-22T05:12:00.330Z,60.03
2018-04-22T05:14:27.772Z,60.04
2018-04-22T05:16:55.299Z,60.54
2018-04-22T05:19:22.740Z,60.15
2018-04-22T05:21:50.169Z,59.76
2018-04-22T05:24:17.644Z,59.10
2018-04-22T05:26:45.593Z,58.63
2018-04-22T05:29:13.015Z,58.37
2018-04-22T05:31:40.432Z,57.95
2018-04-22T05:34:08.064Z,57.43
2018-04-22T05:36:35.529Z,57.09
2018-04-22T05:39:03.397Z,57.26
2018-04-22T05:41:30.866Z,56.91
2018-04-22T05:43:58.330Z,56.73
2018-04-22T05:46:25.760Z,56.57
2018-04-22T05:48:53.150Z,55.89
2018-04-22T05:51:20.554Z,55.67
2018-04-22T05:53:47.966Z,55.30
2018-04-22T05:56:15.454Z,54.97
2018-04-22T05:58:42.929Z,54.09
2018-04-22T06:01:10.367Z,53.57
2018-04-22T06:03:37.836Z,54.30
2018-04-22T06:06:05.276Z,53.31
2018-04-22T06:08:32.749Z,52.43
2018-04-22T06:11:00.215Z,50.93
2018-04-22T06:13:27.611Z,49.68
2018-04-22T06:15:55.055Z,48.75
2018-04-22T06:18:22.486Z,48.48
2018-04-22T06:20:49.920Z,48.46
2018-04-22T06:23:17.357Z,48.71
2018-04-22T06:25:44.800Z,49.29
2018-04-22T06:28:12.350Z,49.24
2018-04-22T06:30:39.780Z,49.09
2018-04-22T06:33:07.244Z,49.08
2018-04-22T06:35:34.669Z,48.52
2018-04-22T06:38:02.165Z,48.13
2018-04-22T06:40:29.588Z,47.09
2018-04-22T06:42:57.039Z,46.15
2018-04-22T06:45:24.442Z,45.72
2018-04-22T06:47:51.883Z,44.85
2018-04-22T06:50:19.416Z,43.85
2018-04-22T06:52:46.978Z,42.91
2018-04-22T06:55:14.371Z,42.23
2018-04-22T06:57:41.852Z,42.22
2018-04-22T07:00:09.284Z,42.38
2018-04-22T07:02:36.715Z,41.62
2018-04-22T07:05:04.253Z,40.97
2018-04-22T07:07:31.675Z,40.31
2018-04-22T07:09:59.105Z,39.33
2018-04-22T07:12:26.547Z,38.05
2018-04-22T07:14:53.941Z,37.07
2018-04-22T07:17:21.487Z,37.24
2018-04-22T07:19:48.967Z,37.31
2018-04-22T07:22:16.412Z,37.25
2018-04-22T07:24:43.908Z,37.08
2018-04-22T07:27:11.339Z,36.55
2018-04-22T07:29:38.806Z,35.79
2018-04-22T07:32:06.226Z,35.44
2018-04-22T07:34:33.748Z,34.88
2018-04-22T07:37:01.215Z,34.00
2018-04-22T07:39:28.612Z,33.44
2018-04-22T07:41:56.065Z,32.83
2018-04-22T07:44:23.502Z,32.20
2018-04-22T07:46:50.964Z,32.14
2018-04-22T07:49:18.382Z,32.46
2018-04-22T07:51:46.758Z,32.33
2018-04-22T07:54:14.236Z,31.81
2018-04-22T07:56:41.732Z,31.13
2018-04-22T07:59:09.125Z,30.62
2018-04-22T08:01:36.532Z,31.09
2018-04-22T08:04:04.085Z,30.39
2018-04-22T08:06:31.572Z,29.99
2018-04-22T08:08:59.013Z,30.12
2018-04-22T08:11:26.413Z,29.80
2018-04-22T08:13:54.179Z,29.13
2018-04-22T08:16:21.650Z,29.39
2018-04-22T08:18:49.121Z,29.36
2018-04-22T08:21:16.529Z,29.25
2018-04-22T08:23:44.156Z,28.41
2018-04-22T08:26:11.554Z,28.58
2018-04-22T08:28:39.026Z,28.54
2018-04-22T08:31:06.455Z,28.18
2018-04-22T08:33:33.927Z,27.72
2018-04-22T08:36:01.432Z,26.41
2018-04-22T08:38:29.012Z,25.74
2018-04-22T08:40:56.434Z,25.47
2018-04-22T08:43:23.859Z,25.23
2018-04-22T08:45:51.287Z,25.50
2018-04-22T08:48:18.694Z,25.88
2018-04-22T08:50:46.124Z,26.04
2018-04-22T08:53:13.602Z,26.58
2018-04-22T08:55:41.109Z,26.78
2018-04-22T08:58:08.585Z,27.69
2018-04-22T09:00:36.124Z,28.45
2018-04-22T09:03:03.557Z,28.81
2018-04-22T09:05:31.024Z,28.14
2018-04-22T09:07:58.493Z,28.27
2018-04-22T09:10:26.715Z,27.68
2018-04-22T09:12:54.428Z,27.34
2018-04-22T09:15:22.025Z,27.79
2018-04-22T09:17:49.527Z,27.80
2018-04-22T09:20:17.007Z,28.01
2018-04-22T09:22:44.444Z,28.27
2018-04-22T09:25:11.437Z,28.19
2018-04-22T09:27:38.933Z,27.55
2018-04-22T09:30:06.572Z,27.62
2018-04-22T09:32:33.988Z,27.85
2018-04-22T09:35:01.418Z,27.28
2018-04-22T09:37:28.342Z,27.44
2018-04-22T09:39:55.289Z,27.66
2018-04-22T09:42:22.263Z,27.79
2018-04-22T09:44:49.232Z,27.42
2018-04-22T09:47:16.704Z,27.57
2018-04-22T09:49:44.138Z,27.49
2018-04-22T09:52:11.631Z,27.16
2018-04-22T09:54:39.063Z,26.95
2018-04-22T09:57:06.529Z,26.60
2018-04-22T09:59:33.918Z,27.05
2018-04-22T10:02:01.375Z,26.99
2018-04-22T10:04:28.783Z,26.89
2018-04-22T10:06:56.175Z,26.62
2018-04-22T10:09:23.616Z,26.08
2018-04-22T10:11:51.076Z,25.71
2018-04-22T10:14:18.487Z,25.96
2018-04-22T10:16:45.932Z,26.76
2018-04-22T10:19:13.851Z,26.27
2018-04-22T10:21:41.320Z,26.26
2018-04-22T10:24:08.780Z,26.06
2018-04-22T10:26:36.276Z,26.19
2018-04-22T10:29:03.679Z,26.08
2018-04-22T10:31:31.615Z,25.70
2018-04-22T10:33:59.728Z,25.62
2018-04-22T10:36:27.180Z,25.43
2018-04-22T10:38:54.599Z,25.33
2018-04-22T10:41:22.055Z,24.73
2018-04-22T10:43:49.559Z,24.72
2018-04-22T10:46:17.002Z,24.67
2018-04-22T10:48:44.449Z,24.65
2018-04-22T10:51:11.845Z,24.60
2018-04-22T10:53:39.363Z,24.65
2018-04-22T10:56:06.854Z,24.97
2018-04-22T10:58:34.329Z,25.42
2018-04-22T11:01:01.786Z,25.58
2018-04-22T11:03:29.252Z,25.53
2018-04-22T11:05:56.745Z,25.50
2018-04-22T11:08:24.187Z,25.27
2018-04-22T11:10:51.590Z,25.34
2018-04-22T11:13:19.060Z,25.42
2018-04-22T11:15:46.479Z,25.77
2018-04-22T11:18:13.909Z,25.46
2018-04-22T11:20:41.380Z,25.28
2018-04-22T11:23:08.801Z,24.72
2018-04-22T11:25:36.239Z,24.26
2018-04-22T11:28:03.690Z,23.81
2018-04-22T11:30:31.119Z,23.21
2018-04-22T11:32:58.582Z,23.17
2018-04-22T11:35:25.993Z,22.94
2018-04-22T11:37:53.438Z,22.89
2018-04-22T11:40:20.828Z,22.89
2018-04-22T11:42:48.273Z,22.77
2018-04-22T11:45:15.876Z,22.62
2018-04-22T11:47:43.371Z,22.45
2018-04-22T11:50:10.932Z,22.62
2018-04-22T11:52:38.401Z,22.35
2018-04-22T11:55:05.846Z,22.15
2018-04-22T11:57:33.230Z,22.17
2018-04-22T12:00:00.696Z,21.45
2018-04-22T12:02:28.240Z,21.54
2018-04-22T12:04:55.655Z,21.67
2018-04-22T12:07:23.117Z,21.50
2018-04-22T12:09:50.604Z,21.60
2018-04-22T12:12:18.141Z,21.38
2018-04-22T12:14:45.745Z,22.14
2018-04-22T12:17:13.236Z,21.32
2018-04-22T12:19:40.647Z,21.34
2018-04-22T12:22:08.090Z,20.66
2018-04-22T12:24:35.510Z,21.02
2018-04-22T12:27:03.760Z,21.21
2018-04-22T12:29:31.217Z,21.33
2018-04-22T12:31:58.695Z,21.07
2018-04-22T12:34:26.106Z,20.19
2018-04-22T12:36:53.552Z,20.56
2018-04-22T12:39:21.019Z,21.59
2018-04-22T12:41:48.490Z,21.54
2018-04-22T12:44:15.936Z,21.21
2018-04-22T12:46:43.351Z,20.89
2018-04-22T12:49:10.758Z,21.27
2018-04-22T12:51:38.152Z,20.31
2018-04-22T12:54:05.612Z,20.22
2018-04-22T12:56:33.043Z,20.68
2018-04-22T12:59:00.508Z,20.58
2018-04-22T13:01:27.989Z,20.43
2018-04-22T13:03:55.464Z,20.77
2018-04-22T13:06:22.901Z,20.94
2018-04-22T13:08:50.390Z,21.12
2018-04-22T13:11:17.813Z,20.56
2018-04-22T13:13:45.294Z,19.43
2018-04-22T13:16:12.749Z,19.56
2018-04-22T13:18:40.176Z,19.89
2018-04-22T13:21:07.595Z,19.58
2018-04-22T13:23:44.486Z,19.21
2018-04-22T13:26:11.942Z,18.41
2018-04-22T13:28:39.342Z,18.33
2018-04-22T13:31:06.785Z,18.69
2018-04-22T13:33:34.309Z,18.91
2018-04-22T13:36:01.728Z,19.33
2018-04-22T13:38:29.150Z,19.42
2018-04-22T13:40:56.595Z,19.34
2018-04-22T13:43:24.378Z,18.77
2018-04-22T13:45:51.771Z,18.20
2018-04-22T13:48:19.243Z,18.20
2018-04-22T13:50:46.715Z,18.08
2018-04-22T13:53:14.327Z,18.02
2018-04-22T13:55:41.796Z,17.74
2018-04-22T13:58:09.224Z,18.26
2018-04-22T14:00:36.801Z,17.95
2018-04-22T14:03:04.390Z,18.25
2018-04-22T14:05:31.827Z,18.52
2018-04-22T14:07:59.263Z,18.14
2018-04-22T14:10:26.720Z,18.08
2018-04-22T14:12:54.819Z,17.19
2018-04-22T14:15:22.275Z,15.91
2018-04-22T14:17:49.708Z,15.17
2018-04-22T14:20:17.126Z,15.61
2018-04-22T14:22:44.642Z,15.52
2018-04-22T14:25:15.162Z,15.27
2018-04-22T14:27:42.567Z,15.47
2018-04-22T14:30:10.018Z,16.06
2018-04-22T14:32:37.433Z,16.23
2018-04-22T14:35:04.907Z,16.32
2018-04-22T14:37:32.346Z,15.90
2018-04-22T14:39:59.799Z,16.23
2018-04-22T14:42:27.265Z,15.90
2018-04-22T14:45:06.249Z,15.88
2018-04-22T14:47:33.717Z,15.66
2018-04-22T14:50:01.149Z,15.50
2018-04-22T14:52:28.721Z,14.80
2018-04-22T14:54:56.248Z,15.68
2018-04-22T14:57:23.740Z,15.87
2018-04-22T14:59:51.168Z,15.95
2018-04-22T15:02:18.799Z,16.40
2018-04-22T15:04:46.241Z,16.87
2018-04-22T15:07:16.872Z,16.41
2018-04-22T15:09:44.337Z,16.39
2018-04-22T15:12:11.744Z,16.21
2018-04-22T15:14:39.207Z,16.04
2018-04-22T15:17:06.648Z,16.22
2018-04-22T15:19:35.410Z,16.37
2018-04-22T15:22:02.802Z,16.48
2018-04-22T15:24:30.978Z,16.92
2018-04-22T15:26:58.412Z,16.93
2018-04-22T15:29:25.857Z,16.31
2018-04-22T15:31:53.258Z,16.07
2018-04-22T15:34:20.720Z,16.42
2018-04-22T15:36:48.147Z,16.54
2018-04-22T15:39:15.608Z,16.65
2018-04-22T15:41:46.408Z,16.79
2018-04-22T15:44:13.856Z,16.92
2018-04-22T15:46:41.318Z,17.15
2018-04-22T15:49:08.789Z,17.64
2018-04-22T15:51:36.289Z,17.64
2018-04-22T15:54:03.683Z,17.62
2018-04-22T15:56:31.144Z,18.11
2018-04-22T15:58:58.571Z,18.27
2018-04-22T16:01:26.036Z,18.08
2018-04-22T16:03:53.538Z,17.98
2018-04-22T16:06:21.020Z,18.20
2018-04-22T16:08:48.428Z,18.19
2018-04-22T16:11:15.885Z,18.14
2018-04-22T16:13:43.307Z,18.38
2018-04-22T16:16:11.421Z,18.79
2018-04-22T16:18:38.839Z,19.03
2018-04-22T16:21:06.323Z,19.12
2018-04-22T16:23:33.744Z,18.73
2018-04-22T16:26:04.334Z,18.92
2018-04-22T16:28:31.819Z,19.17
2018-04-22T16:30:59.391Z,19.34
2018-04-22T16:33:26.818Z,19.46
2018-04-22T16:35:54.362Z,19.24
2018-04-22T16:38:21.858Z,19.11
2018-04-22T16:40:49.314Z,19.07
2018-04-22T16:43:16.792Z,18.81
2018-04-22T16:45:44.192Z,18.96
2018-04-22T16:48:11.648Z,19.22
2018-04-22T16:50:42.177Z,19.28
2018-04-22T16:53:09.621Z,19.42
2018-04-22T16:55:37.483Z,19.84
2018-04-22T16:58:04.939Z,20.27
2018-04-22T17:00:32.555Z,20.53
2018-04-22T17:03:00.000Z,20.65
2018-04-22T17:05:31.604Z,20.99
2018-04-22T17:07:59.075Z,21.24
2018-04-22T17:10:43.421Z,21.55
2018-04-22T17:13:11.948Z,21.79
2018-04-22T17:15:39.464Z,21.81
2018-04-22T17:18:06.894Z,21.84
2018-04-22T17:20:34.382Z,22.11
2018-04-22T17:23:01.910Z,22.44
2018-04-22T17:25:29.372Z,22.56
2018-04-22T17:27:56.877Z,22.69
2018-04-22T17:30:24.324Z,22.76
2018-04-22T17:32:51.909Z,22.84
2018-04-22T17:35:19.377Z,22.88
2018-04-22T17:37:46.828Z,22.97
2018-04-22T17:40:14.308Z,23.24
2018-04-22T17:42:41.790Z,23.38
2018-04-22T17:45:09.249Z,23.25
2018-04-22T17:47:36.792Z,23.29
2018-04-22T17:50:04.251Z,23.32
2018-04-22T17:52:31.708Z,23.56
2018-04-22T17:54:59.314Z,23.80
2018-04-22T17:57:26.814Z,24.08
2018-04-22T17:59:54.247Z,24.47
2018-04-22T18:02:21.818Z,24.92
2018-04-22T18:04:49.313Z,25.43
2018-04-22T18:07:16.764Z,25.51
2018-04-22T18:09:44.287Z,26.09
2018-04-22T18:12:11.707Z,26.16
2018-04-22T18:14:39.333Z,26.28
2018-04-22T18:17:06.777Z,26.47
2018-04-22T18:19:34.201Z,26.75
2018-04-22T18:22:01.645Z,26.89
2018-04-22T18:24:29.129Z,26.77
2018-04-22T18:26:56.594Z,26.74
2018-04-22T18:29:24.045Z,26.74
2018-04-22T18:31:52.200Z,26.80
2018-04-22T18:34:19.679Z,27.09
2018-04-22T18:36:47.076Z,27.34
2018-04-22T18:39:14.516Z,27.83
2018-04-22T18:41:41.925Z,28.17
2018-04-22T18:44:09.403Z,28.44
2018-04-22T18:46:36.892Z,28.61
2018-04-22T18:49:04.877Z,28.87
2018-04-22T18:51:32.531Z,29.08
2018-04-22T18:53:59.951Z,29.33
2018-04-22T18:56:27.448Z,29.37
2018-04-22T18:58:54.931Z,29.80
2018-04-22T19:01:22.439Z,29.80
2018-04-22T19:03:49.915Z,30.03
2018-04-22T19:06:17.322Z,30.49
2018-04-22T19:08:45.046Z,30.65
2018-04-22T19:11:12.497Z,30.70
2018-04-22T19:13:39.886Z,30.97
2018-04-22T19:16:10.461Z,31.04
2018-04-22T19:18:38.911Z,31.25
2018-04-22T19:21:06.392Z,31.60
2018-04-22T19:23:34.435Z,31.54
2018-04-22T19:26:01.928Z,31.64
2018-04-22T19:28:29.314Z,31.65
2018-04-22T19:30:56.811Z,32.23
2018-04-22T19:33:24.273Z,32.17
2018-04-22T19:35:51.723Z,32.44
2018-04-22T19:38:19.168Z,32.28
2018-04-22T19:40:46.594Z,32.18
2018-04-22T19:43:14.055Z,32.90
2018-04-22T19:45:41.499Z,32.95
2018-04-22T19:48:08.933Z,33.28
2018-04-22T19:50:36.423Z,33.93
2018-04-22T19:53:03.906Z,32.95
2018-04-22T19:55:31.345Z,32.53
2018-04-22T19:57:58.784Z,32.83
2018-04-22T20:00:26.241Z,32.72
2018-04-22T20:02:53.913Z,32.63
2018-04-22T20:05:21.333Z,32.44
2018-04-22T20:07:48.796Z,32.54
2018-04-22T20:10:16.339Z,32.40
2018-04-22T20:12:43.794Z,32.21
2018-04-22T20:15:11.354Z,32.71
2018-04-22T20:17:38.845Z,32.65
2018-04-22T20:20:06.264Z,32.46
2018-04-22T20:22:33.703Z,32.36
2018-04-22T20:25:01.212Z,32.51
2018-04-22T20:27:28.641Z,32.15
2018-04-22T20:29:56.136Z,32.37
2018-04-22T20:32:23.611Z,32.39
2018-04-22T20:34:51.047Z,32.47
2018-04-22T20:37:18.502Z,31.82
2018-04-22T20:39:45.937Z,31.73
2018-04-22T20:42:13.387Z,31.43
2018-04-22T20:44:40.837Z,31.11
2018-04-22T20:47:08.376Z,31.36
2018-04-22T20:49:35.770Z,31.52
2018-04-22T20:52:03.226Z,31.07
2018-04-22T20:54:30.709Z,30.42
2018-04-22T20:56:58.173Z,30.53
2018-04-22T20:59:26.064Z,30.44
2018-04-22T21:01:53.729Z,30.44
2018-04-22T21:04:21.150Z,30.19
2018-04-22T21:06:48.659Z,29.85
2018-04-22T21:09:16.064Z,29.77
2018-04-22T21:11:43.483Z,29.58
2018-04-22T21:14:10.911Z,29.53
2018-04-22T21:16:38.381Z,29.33
2018-04-22T21:19:05.776Z,29.31
2018-04-22T21:21:33.182Z,29.37
2018-04-22T21:24:00.640Z,29.57
2018-04-22T21:26:28.072Z,29.51
2018-04-22T21:28:55.465Z,30.07
2018-04-22T21:31:23.008Z,30.17
2018-04-22T21:33:50.555Z,30.71
2018-04-22T21:36:17.943Z,30.39
2018-04-22T21:38:45.350Z,30.39
2018-04-22T21:41:12.770Z,30.58
2018-04-22T21:43:40.300Z,30.84
2018-04-22T21:46:07.759Z,31.12
2018-04-22T21:48:35.228Z,31.37
2018-04-22T21:51:02.692Z,31.72
2018-04-22T21:53:30.792Z,32.12
2018-04-22T21:55:58.211Z,32.05
2018-04-22T21:58:25.668Z,32.20
2018-04-22T22:00:53.108Z,32.48
2018-04-22T22:03:20.539Z,32.44
2018-04-22T22:05:48.005Z,32.77
2018-04-22T22:08:15.428Z,32.55
2018-04-22T22:10:42.832Z,32.26
2018-04-22T22:13:10.309Z,32.94
2018-04-22T22:15:37.700Z,33.19
2018-04-22T22:18:05.124Z,32.88
2018-04-22T22:20:32.549Z,32.88
2018-04-22T22:22:59.984Z,32.67
2018-04-22T22:25:27.441Z,32.70
2018-04-22T22:27:54.877Z,33.02
2018-04-22T22:30:22.342Z,32.72
2018-04-22T22:32:49.755Z,32.18
2018-04-22T22:35:17.175Z,32.39
2018-04-22T22:37:44.625Z,32.90
2018-04-22T22:40:12.064Z,32.78
2018-04-22T22:42:39.491Z,32.87
2018-04-22T22:45:06.947Z,32.63
2018-04-22T22:47:34.355Z,32.84
2018-04-22T22:50:02.338Z,33.31
2018-04-22T22:52:29.966Z,33.56
2018-04-22T22:54:57.432Z,33.73
2018-04-22T22:57:24.866Z,33.49
2018-04-22T22:59:52.407Z,33.36
2018-04-22T23:02:19.811Z,33.89
2018-04-22T23:04:47.208Z,33.93
2018-04-22T23:07:14.644Z,35.07
2018-04-22T23:09:42.051Z,35.44
2018-04-22T23:12:09.516Z,35.47
2018-04-22T23:14:36.987Z,36.28
2018-04-22T23:17:04.429Z,36.46
2018-04-22T23:19:32.047Z,35.06
2018-04-22T23:21:59.455Z,35.58
2018-04-22T23:24:26.858Z,35.27
2018-04-22T23:26:54.303Z,35.03
2018-04-22T23:29:21.818Z,34.88
2018-04-22T23:31:49.285Z,34.89
2018-04-22T23:34:16.709Z,35.81
2018-04-22T23:36:44.103Z,35.59
2018-04-22T23:39:11.536Z,35.38
2018-04-22T23:41:38.952Z,35.43
2018-04-22T23:44:06.906Z,35.32
2018-04-22T23:46:34.413Z,35.25
2018-04-22T23:49:01.925Z,35.37
2018-04-22T23:51:29.368Z,35.44
2018-04-22T23:53:57.155Z,35.68
2018-04-22T23:56:24.596Z,36.33
2018-04-22T23:58:52.017Z,36.07
